createdAt,value
2018-08-25T05:10:18.468Z,53.10
2018-08-25T05:12:49.058Z,52.90
2018-08-25T05:15:18.459Z,53.30
2018-08-25T05:17:47.807Z,53.40
2018-08-25T05:20:17.449Z,53.30
2018-08-25T05:22:47.092Z,53.50
2018-08-25T05:25:16.548Z,53.40
2018-08-25T05:27:45.832Z,53.30
2018-08-25T05:30:15.082Z,53.30
2018-08-25T05:32:44.224Z,53.30
2018-08-25T05:35:13.757Z,53.30
2018-08-25T05:37:42.857Z,53.30
2018-08-25T05:40:11.994Z,53.20
2018-08-25T05:42:41.508Z,53.20
2018-08-25T05:45:10.965Z,53.20
2018-08-25T05:47:40.575Z,53.10
2018-08-25T05:50:09.767Z,53.00
2018-08-25T05:52:38.555Z,53.00
2018-08-25T05:55:09.110Z,53.00
2018-08-25T05:57:38.648Z,53.00
2018-08-25T06:00:08.268Z,53.00
2018-08-25T06:02:37.556Z,53.20
2018-08-25T06:05:06.430Z,52.90
2018-08-25T06:07:35.550Z,53.00
2018-08-25T06:10:04.357Z,53.00
2018-08-25T06:12:33.755Z,53.10
2018-08-25T06:15:03.256Z,53.00
2018-08-25T06:17:32.462Z,52.80
2018-08-25T06:20:01.843Z,52.90
2018-08-25T06:22:30.631Z,52.90
2018-08-25T06:25:00.156Z,52.90
2018-08-25T06:27:31.942Z,52.90
2018-08-25T06:30:01.300Z,52.70
2018-08-25T06:32:30.321Z,52.70
2018-08-25T06:34:59.062Z,52.70
2018-08-25T06:37:28.239Z,52.70
2018-08-25T06:39:57.786Z,52.70
2018-08-25T06:42:27.435Z,52.70
2018-08-25T06:44:56.287Z,52.70
2018-08-25T06:47:25.803Z,52.70
2018-08-25T06:49:55.045Z,52.60
2018-08-25T06:54:52.636Z,52.70
2018-08-25T06:57:22.101Z,52.70
2018-08-25T06:59:51.574Z,52.70
2018-08-25T07:02:20.747Z,52.80
2018-08-25T07:04:49.894Z,53.10
2018-08-25T07:07:19.103Z,53.50
2018-08-25T07:12:16.818Z,53.80
2018-08-25T07:14:45.911Z,53.80
2018-08-25T07:17:14.586Z,53.90
2018-08-25T07:19:43.323Z,53.90
2018-08-25T07:22:13.013Z,53.90
2018-08-25T07:24:41.722Z,53.90
2018-08-25T07:27:10.519Z,54.00
2018-08-25T07:29:39.499Z,54.00
2018-08-25T07:32:08.980Z,54.40
2018-08-25T07:34:38.543Z,53.90
2018-08-25T07:37:07.330Z,53.80
2018-08-25T07:39:36.394Z,53.80
2018-08-25T07:44:34.111Z,54.10
2018-08-25T07:47:03.162Z,54.30
2018-08-25T07:49:33.046Z,53.60
2018-08-25T07:52:02.693Z,53.70
2018-08-25T07:54:32.474Z,53.70
2018-08-25T07:57:01.781Z,54.40
2018-08-25T07:59:30.899Z,53.80
2018-08-25T08:04:30.042Z,53.80
2018-08-25T08:06:59.106Z,53.80
2018-08-25T08:09:28.106Z,53.70
2018-08-25T08:11:57.924Z,53.80
2018-08-25T08:14:26.814Z,53.80
2018-08-25T08:16:55.522Z,53.80
2018-08-25T08:19:24.472Z,53.80
2018-08-25T08:21:53.278Z,53.80
2018-08-25T08:24:22.924Z,53.80
2018-08-25T08:26:51.626Z,53.80
2018-08-25T08:29:20.771Z,53.50
2018-08-25T08:31:49.470Z,53.60
2018-08-25T08:34:18.190Z,53.50
2018-08-25T08:36:47.208Z,53.40
2018-08-25T08:39:16.638Z,53.30
2018-08-25T08:41:45.763Z,53.40
2018-08-25T08:44:14.870Z,53.30
2018-08-25T08:46:44.443Z,53.40
2018-08-25T08:49:13.426Z,53.60
2018-08-25T08:51:42.986Z,53.50
2018-08-25T08:54:12.201Z,53.40
2018-08-25T08:56:40.917Z,53.50
2018-08-25T08:59:10.585Z,53.40
2018-08-25T09:01:39.762Z,53.30
2018-08-25T09:04:08.866Z,53.10
2018-08-25T09:06:38.005Z,53.10
2018-08-25T09:09:09.806Z,52.80
2018-08-25T09:11:39.367Z,52.80
2018-08-25T09:14:08.677Z,52.60
2018-08-25T09:16:38.101Z,52.60
2018-08-25T09:19:07.647Z,52.80
2018-08-25T09:21:36.945Z,52.70
2018-08-25T09:24:06.357Z,52.80
2018-08-25T09:26:35.070Z,52.50
2018-08-25T09:29:04.766Z,52.40
2018-08-25T09:31:33.551Z,52.40
2018-08-25T09:34:02.818Z,52.20
2018-08-25T09:36:32.075Z,52.30
2018-08-25T09:39:01.591Z,52.30
2018-08-25T09:41:32.043Z,52.30
2018-08-25T09:44:01.194Z,52.20
2018-08-25T09:46:30.712Z,52.30
2018-08-25T09:48:59.642Z,52.00
2018-08-25T09:51:28.630Z,51.90
2018-08-25T09:53:57.382Z,51.90
2018-08-25T09:56:26.926Z,51.90
2018-08-25T09:58:55.639Z,51.70
2018-08-25T10:01:29.337Z,51.80
2018-08-25T10:03:59.000Z,52.00
2018-08-25T10:06:29.174Z,52.10
2018-08-25T10:08:58.514Z,52.00
2018-08-25T10:11:28.011Z,52.00
2018-08-25T10:13:57.478Z,52.00
2018-08-25T10:16:26.630Z,51.80
2018-08-25T10:18:55.909Z,51.80
2018-08-25T10:21:25.594Z,51.70
2018-08-25T10:23:54.506Z,51.80
2018-08-25T10:26:23.270Z,51.90
2018-08-25T10:28:52.338Z,51.90
2018-08-25T10:31:23.403Z,51.90
2018-08-25T10:33:52.917Z,51.90
2018-08-25T10:36:21.633Z,51.90
2018-08-25T10:38:51.518Z,52.10
2018-08-25T10:41:20.320Z,52.20
2018-08-25T10:43:49.426Z,52.40
2018-08-25T10:46:18.127Z,52.40
2018-08-25T10:48:47.368Z,52.60
2018-08-25T10:51:16.386Z,52.60
2018-08-25T10:53:45.891Z,52.60
2018-08-25T10:56:15.849Z,52.30
2018-08-25T10:58:46.163Z,52.40
2018-08-25T11:01:17.195Z,52.10
2018-08-25T11:03:46.716Z,52.10
2018-08-25T11:06:15.941Z,52.00
2018-08-25T11:08:45.646Z,52.00
2018-08-25T11:11:14.781Z,51.80
2018-08-25T11:13:43.870Z,51.80
2018-08-25T11:16:12.618Z,51.60
2018-08-25T11:18:41.559Z,52.40
2018-08-25T11:21:12.213Z,52.30
2018-08-25T11:23:41.942Z,52.10
2018-08-25T11:26:11.154Z,52.10
2018-08-25T11:28:40.761Z,52.30
2018-08-25T11:31:09.481Z,52.10
2018-08-25T11:33:38.318Z,52.10
2018-08-25T11:36:07.543Z,51.90
2018-08-25T11:38:36.446Z,52.10
2018-08-25T11:41:05.263Z,51.90
2018-08-25T11:43:34.358Z,51.90
2018-08-25T11:48:32.402Z,51.60
2018-08-25T11:51:01.145Z,51.50
2018-08-25T11:53:30.641Z,51.60
2018-08-25T11:55:59.397Z,51.40
2018-08-25T11:58:29.366Z,51.50
2018-08-25T12:00:58.433Z,51.60
2018-08-25T12:03:28.157Z,52.30
2018-08-25T12:05:57.057Z,51.50
2018-08-25T12:08:25.766Z,50.90
2018-08-25T12:10:54.486Z,51.30
2018-08-25T12:13:23.185Z,51.30
2018-08-25T12:15:52.355Z,51.60
2018-08-25T12:18:21.181Z,51.50
2018-08-25T12:20:50.781Z,51.50
2018-08-25T12:23:19.478Z,51.60
2018-08-25T12:25:48.428Z,51.60
2018-08-25T12:28:17.214Z,51.60
2018-08-25T12:30:46.283Z,51.80
2018-08-25T12:33:17.137Z,51.80
2018-08-25T12:35:45.832Z,51.80
2018-08-25T12:38:14.578Z,51.90
2018-08-25T12:40:43.326Z,52.20
2018-08-25T12:43:13.058Z,52.20
2018-08-25T12:45:42.306Z,52.20
2018-08-25T12:48:10.992Z,52.10
2018-08-25T12:50:41.314Z,52.40
2018-08-25T12:53:10.744Z,52.00
2018-08-25T12:55:39.438Z,51.80
2018-08-25T12:58:08.975Z,51.50
2018-08-25T13:00:38.199Z,51.40
2018-08-25T13:03:06.992Z,51.70
2018-08-25T13:05:36.051Z,51.70
2018-08-25T13:08:06.098Z,51.50
2018-08-25T13:10:35.223Z,51.50
2018-08-25T13:13:04.623Z,51.40
2018-08-25T13:15:33.797Z,51.30
2018-08-25T13:18:02.990Z,51.00
2018-08-25T13:20:33.165Z,51.50
2018-08-25T13:23:02.538Z,51.80
2018-08-25T13:25:31.258Z,51.20
2018-08-25T13:28:00.537Z,51.30
2018-08-25T13:30:29.783Z,51.20
2018-08-25T13:32:59.366Z,51.20
2018-08-25T13:35:28.174Z,51.20
2018-08-25T13:37:57.892Z,51.30
2018-08-25T13:40:27.648Z,51.50
2018-08-25T13:42:56.650Z,51.80
2018-08-25T13:45:25.400Z,51.80
2018-08-25T13:47:54.310Z,52.00
2018-08-25T13:50:25.006Z,51.80
2018-08-25T13:52:54.765Z,51.90
2018-08-25T13:55:23.507Z,51.60
2018-08-25T13:57:52.598Z,51.70
2018-08-25T14:00:23.063Z,51.70
2018-08-25T14:02:52.838Z,51.20
2018-08-25T14:05:21.625Z,51.30
2018-08-25T14:07:50.818Z,51.00
2018-08-25T14:10:20.216Z,50.90
2018-08-25T14:12:48.922Z,51.30
2018-08-25T14:15:18.086Z,51.80
2018-08-25T14:17:46.800Z,51.40
2018-08-25T14:20:16.081Z,51.90
2018-08-25T14:22:44.865Z,50.80
2018-08-25T14:25:13.939Z,50.90
2018-08-25T14:27:42.642Z,51.10
2018-08-25T14:30:11.717Z,50.80
2018-08-25T14:32:41.789Z,51.00
2018-08-25T14:37:39.935Z,50.20
2018-08-25T14:40:08.734Z,50.10
2018-08-25T14:42:38.146Z,49.40
2018-08-25T14:45:06.899Z,50.00
2018-08-25T14:47:35.590Z,49.70
2018-08-25T14:50:04.758Z,50.30
2018-08-25T14:52:33.505Z,50.50
2018-08-25T14:55:02.887Z,50.50
2018-08-25T14:57:31.593Z,50.60
2018-08-25T15:00:00.827Z,50.60
2018-08-25T15:02:29.876Z,50.50
2018-08-25T15:04:59.122Z,50.50
2018-08-25T15:07:28.961Z,50.60
2018-08-25T15:09:58.084Z,51.10
2018-08-25T15:12:26.872Z,50.50
2018-08-25T15:14:55.942Z,50.40
2018-08-25T15:17:26.029Z,50.50
2018-08-25T15:19:55.179Z,50.50
2018-08-25T15:22:24.553Z,50.40
2018-08-25T15:24:54.423Z,50.40
2018-08-25T15:27:24.793Z,50.30
2018-08-25T15:29:53.754Z,50.30
2018-08-25T15:32:22.446Z,50.40
2018-08-25T15:34:51.710Z,50.10
2018-08-25T15:37:20.484Z,49.90
2018-08-25T15:39:49.745Z,50.00
2018-08-25T15:42:19.875Z,50.00
2018-08-25T15:44:48.610Z,49.60
2018-08-25T15:47:18.170Z,49.60
2018-08-25T15:49:47.330Z,49.50
2018-08-25T15:52:16.133Z,50.30
2018-08-25T15:54:45.771Z,49.70
2018-08-25T15:57:15.250Z,49.50
2018-08-25T15:59:44.646Z,49.70
2018-08-25T16:02:13.338Z,49.50
2018-08-25T16:04:42.083Z,49.40
2018-08-25T16:07:10.835Z,49.90
2018-08-25T16:12:08.834Z,49.60
2018-08-25T16:14:38.077Z,49.50
2018-08-25T16:17:07.083Z,49.40
2018-08-25T16:19:36.933Z,49.20
2018-08-25T16:22:06.418Z,49.10
2018-08-25T16:24:35.190Z,49.10
2018-08-25T16:27:04.668Z,49.00
2018-08-25T16:29:34.358Z,48.90
2018-08-25T16:32:03.858Z,49.20
2018-08-25T16:34:32.918Z,49.10
2018-08-25T16:39:35.482Z,48.90
2018-08-25T16:42:04.526Z,49.10
2018-08-25T16:44:33.207Z,49.00
2018-08-25T16:47:04.146Z,49.10
2018-08-25T16:49:32.946Z,49.10
2018-08-25T16:52:02.790Z,49.20
2018-08-25T16:54:31.930Z,49.10
2018-08-25T16:57:01.580Z,49.20
2018-08-25T16:59:30.834Z,49.10
2018-08-25T17:02:00.553Z,48.90
2018-08-25T17:04:29.466Z,49.10
2018-08-25T17:06:58.805Z,48.60
2018-08-25T17:09:27.614Z,49.00
2018-08-25T17:11:57.341Z,49.30
2018-08-25T17:14:27.502Z,49.50
2018-08-25T17:16:57.127Z,49.50
2018-08-25T17:19:29.224Z,48.80
2018-08-25T17:21:58.978Z,49.10
2018-08-25T17:24:28.247Z,48.00
2018-08-25T17:26:57.968Z,48.20
2018-08-25T17:29:27.218Z,48.20
2018-08-25T17:31:56.223Z,48.20
2018-08-25T17:34:25.612Z,47.70
2018-08-25T17:36:54.418Z,47.80
2018-08-25T17:39:24.597Z,47.90
2018-08-25T17:41:53.644Z,47.80
2018-08-25T17:44:23.608Z,48.90
2018-08-25T17:46:52.874Z,48.30
2018-08-25T17:49:21.975Z,48.00
2018-08-25T17:51:51.719Z,48.20
2018-08-25T17:54:22.298Z,48.50
2018-08-25T17:56:51.173Z,48.20
2018-08-25T17:59:20.300Z,48.00
2018-08-25T18:01:49.385Z,48.20
2018-08-25T18:04:19.036Z,48.20
2018-08-25T18:06:48.623Z,48.30
2018-08-25T18:09:17.836Z,48.40
2018-08-25T18:11:47.327Z,48.50
2018-08-25T18:14:16.750Z,48.60
2018-08-25T18:16:46.179Z,48.80
2018-08-25T18:19:15.962Z,48.50
2018-08-25T18:21:45.108Z,48.60
2018-08-25T18:24:14.197Z,48.50
2018-08-25T18:26:43.323Z,48.70
2018-08-25T18:29:12.685Z,48.80
2018-08-25T18:31:42.302Z,48.60
2018-08-25T18:34:12.245Z,48.70
2018-08-25T18:36:41.376Z,48.80
2018-08-25T18:39:12.571Z,48.70
2018-08-25T18:41:42.090Z,49.40
2018-08-25T18:44:13.732Z,49.10
2018-08-25T18:46:42.855Z,48.80
2018-08-25T18:49:11.867Z,48.70
2018-08-25T18:51:40.874Z,48.70
2018-08-25T18:54:09.600Z,48.80
2018-08-25T18:56:38.690Z,48.80
2018-08-25T18:59:08.185Z,48.60
2018-08-25T19:01:37.327Z,48.70
2018-08-25T19:04:06.425Z,49.00
2018-08-25T19:06:35.846Z,48.70
2018-08-25T19:09:06.390Z,49.10
2018-08-25T19:11:35.736Z,48.90
2018-08-25T19:14:05.338Z,48.70
2018-08-25T19:16:34.205Z,48.70
2018-08-25T19:19:03.773Z,48.70
2018-08-25T19:21:32.499Z,48.70
2018-08-25T19:24:01.302Z,48.80
2018-08-25T19:26:30.828Z,48.70
2018-08-25T19:28:59.922Z,49.60
2018-08-25T19:31:29.580Z,49.10
2018-08-25T19:33:58.807Z,49.30
2018-08-25T19:36:28.086Z,49.20
2018-08-25T19:38:57.266Z,49.00
2018-08-25T19:41:26.067Z,49.00
2018-08-25T19:43:55.011Z,47.70
2018-08-25T19:46:24.002Z,48.80
2018-08-25T19:48:52.843Z,48.90
2018-08-25T19:51:21.563Z,48.90
2018-08-25T19:53:50.978Z,49.00
2018-08-25T19:56:20.151Z,49.00
2018-08-25T19:58:49.153Z,49.10
2018-08-25T20:01:18.244Z,49.10
2018-08-25T20:03:47.265Z,49.40
2018-08-25T20:06:16.850Z,49.40
2018-08-25T20:08:45.694Z,49.40
2018-08-25T20:11:14.903Z,49.60
2018-08-25T20:13:43.616Z,49.70
2018-08-25T20:16:12.661Z,50.30
2018-08-25T20:18:42.274Z,49.60
2018-08-25T20:21:11.429Z,49.80
2018-08-25T20:23:41.087Z,49.70
2018-08-25T20:26:10.574Z,49.80
2018-08-25T20:28:39.698Z,49.90
2018-08-25T20:31:08.859Z,50.00
2018-08-25T20:33:37.582Z,49.90
2018-08-25T20:36:06.535Z,49.80
2018-08-25T20:38:37.206Z,50.10
2018-08-25T20:41:06.741Z,49.60
2018-08-25T20:43:35.874Z,50.20
2018-08-25T20:46:05.209Z,49.50
2018-08-25T20:48:34.719Z,49.40
2018-08-25T20:51:05.371Z,49.40
2018-08-25T20:53:34.226Z,49.50
2018-08-25T20:56:02.988Z,49.60
